createdAt,value
2022-12-15T00:00:23.769Z,63.99
2022-12-15T00:02:13.689Z,64.16
2022-12-15T00:04:13.842Z,64.19
2022-12-15T00:06:04.043Z,64.20
2022-12-15T00:07:53.964Z,64.26
2022-12-15T00:09:43.974Z,65.08
2022-12-15T00:11:34.104Z,64.19
2022-12-15T00:13:30.682Z,64.90
2022-12-15T00:15:21.172Z,64.53
2022-12-15T00:17:11.557Z,64.51
2022-12-15T00:19:01.685Z,64.81
2022-12-15T00:20:52.114Z,64.43
2022-12-15T00:22:42.157Z,64.39
2022-12-15T00:24:32.162Z,64.29
2022-12-15T00:26:22.626Z,64.40
2022-12-15T00:28:15.271Z,64.47
2022-12-15T00:30:05.583Z,64.33
2022-12-15T00:31:56.300Z,64.24
2022-12-15T00:33:46.304Z,64.64
2022-12-15T00:35:36.511Z,63.98
2022-12-15T00:37:27.180Z,64.18
2022-12-15T00:39:03.495Z,64.91
2022-12-15T00:40:35.521Z,63.80
2022-12-15T00:42:07.690Z,64.24
2022-12-15T00:43:40.140Z,64.33
2022-12-15T00:45:11.621Z,64.13
2022-12-15T00:46:55.369Z,64.18
2022-12-15T00:48:27.158Z,63.88
2022-12-15T00:50:18.594Z,64.04
2022-12-15T00:52:10.513Z,64.15
2022-12-15T00:54:01.662Z,63.41
2022-12-15T00:55:53.705Z,64.04
2022-12-15T00:57:45.476Z,64.01
2022-12-15T00:59:37.362Z,63.86
2022-12-15T01:01:41.315Z,63.92
2022-12-15T01:03:41.228Z,63.97
2022-12-15T01:05:54.344Z,63.85
2022-12-15T01:07:49.445Z,63.88
2022-12-15T01:09:49.277Z,64.25
2022-12-15T01:11:43.927Z,64.65
2022-12-15T01:13:34.641Z,64.48
2022-12-15T01:15:25.199Z,63.72
2022-12-15T01:17:15.214Z,63.68
2022-12-15T01:19:07.688Z,63.93
2022-12-15T01:20:45.084Z,63.84
2022-12-15T01:22:16.850Z,64.64
2022-12-15T01:23:49.488Z,64.66
2022-12-15T01:25:22.478Z,64.01
2022-12-15T01:26:54.162Z,64.48
2022-12-15T01:28:25.930Z,64.87
2022-12-15T01:29:57.550Z,63.95
2022-12-15T01:31:29.286Z,64.44
2022-12-15T01:33:00.981Z,64.51
2022-12-15T01:34:32.693Z,64.00
2022-12-15T01:36:04.356Z,64.55
2022-12-15T01:37:36.311Z,64.52
2022-12-15T01:39:08.165Z,64.14
2022-12-15T01:40:45.861Z,64.72
2022-12-15T01:42:17.444Z,64.41
2022-12-15T01:43:49.829Z,64.70
2022-12-15T01:45:24.493Z,64.75
2022-12-15T01:46:56.633Z,65.08
2022-12-15T01:48:31.229Z,65.02
2022-12-15T01:50:02.829Z,65.38
2022-12-15T01:51:40.602Z,65.03
2022-12-15T01:53:12.235Z,65.39
2022-12-15T01:54:48.988Z,65.12
2022-12-15T01:56:20.814Z,65.61
2022-12-15T01:57:52.632Z,65.79
2022-12-15T01:59:25.374Z,65.72
2022-12-15T02:00:57.203Z,65.58
2022-12-15T02:02:29.504Z,65.25
2022-12-15T02:04:01.293Z,65.53
2022-12-15T02:05:33.515Z,65.31
2022-12-15T02:07:05.088Z,65.50
2022-12-15T02:08:36.735Z,65.55
2022-12-15T02:10:10.362Z,65.38
2022-12-15T02:11:46.101Z,65.06
2022-12-15T02:13:30.252Z,65.35
2022-12-15T02:15:17.961Z,65.33
2022-12-15T02:16:52.319Z,65.01
2022-12-15T02:18:35.477Z,65.62
2022-12-15T02:20:16.101Z,65.47
2022-12-15T02:21:56.962Z,65.32
2022-12-15T02:23:40.859Z,65.40
2022-12-15T02:25:44.989Z,65.54
2022-12-15T02:27:34.650Z,65.78
2022-12-15T02:29:13.313Z,66.22
2022-12-15T02:31:33.297Z,65.81
2022-12-15T02:33:09.134Z,66.69
2022-12-15T02:34:53.117Z,66.00
2022-12-15T02:36:26.458Z,66.38
2022-12-15T02:37:57.996Z,66.36
2022-12-15T02:39:29.682Z,66.51
2022-12-15T02:41:02.663Z,66.33
2022-12-15T02:42:34.550Z,66.21
2022-12-15T02:44:26.329Z,66.35
2022-12-15T02:46:01.938Z,66.14
2022-12-15T02:47:39.928Z,66.45
2022-12-15T02:49:17.767Z,66.25
2022-12-15T02:50:51.730Z,66.26
2022-12-15T02:52:26.238Z,66.13
2022-12-15T02:54:00.954Z,66.42
2022-12-15T02:55:38.251Z,65.99
2022-12-15T02:57:36.133Z,66.59
2022-12-15T02:59:11.305Z,66.49
2022-12-15T03:00:44.515Z,65.94
2022-12-15T03:02:16.245Z,65.87
2022-12-15T03:03:47.886Z,66.02
2022-12-15T03:05:19.688Z,66.52
2022-12-15T03:07:00.537Z,66.50
2022-12-15T03:08:32.518Z,66.76
2022-12-15T03:10:04.824Z,66.16
2022-12-15T03:11:36.399Z,66.42
2022-12-15T03:13:08.002Z,66.20
2022-12-15T03:14:39.989Z,65.79
2022-12-15T03:16:11.641Z,66.38
2022-12-15T03:17:43.272Z,65.89
2022-12-15T03:19:15.015Z,65.84
2022-12-15T03:20:46.708Z,66.29
2022-12-15T03:22:18.336Z,65.79
2022-12-15T03:23:49.900Z,65.77
2022-12-15T03:25:21.739Z,65.85
2022-12-15T03:26:53.819Z,65.71
2022-12-15T03:28:25.587Z,65.68
2022-12-15T03:29:57.832Z,65.49
2022-12-15T03:31:29.516Z,65.92
2022-12-15T03:33:01.182Z,66.15
2022-12-15T03:34:32.773Z,65.72
2022-12-15T03:36:04.620Z,65.90
2022-12-15T03:37:36.101Z,66.21
2022-12-15T03:39:07.635Z,66.51
2022-12-15T03:40:39.483Z,65.98
2022-12-15T03:42:11.233Z,65.92
2022-12-15T03:43:42.929Z,66.17
2022-12-15T03:45:16.737Z,65.90
2022-12-15T03:46:48.415Z,65.93
2022-12-15T03:48:19.964Z,65.95
2022-12-15T03:49:51.463Z,66.32
2022-12-15T03:51:22.977Z,66.17
2022-12-15T03:52:55.509Z,65.81
2022-12-15T03:54:27.003Z,66.02
2022-12-15T03:55:58.564Z,66.32
2022-12-15T03:57:30.236Z,65.79
2022-12-15T03:59:01.738Z,65.50
2022-12-15T04:00:33.299Z,65.75
2022-12-15T04:02:04.954Z,65.74
2022-12-15T04:03:36.664Z,65.42
2022-12-15T04:05:08.403Z,65.49
2022-12-15T04:06:39.975Z,65.68
2022-12-15T04:08:12.948Z,65.51
2022-12-15T04:09:44.524Z,65.83
2022-12-15T04:11:16.145Z,65.68
2022-12-15T04:12:47.837Z,65.38
2022-12-15T04:14:19.367Z,65.35
2022-12-15T04:15:51.056Z,65.25
2022-12-15T04:17:22.707Z,65.33
2022-12-15T04:19:14.227Z,65.51
2022-12-15T04:20:45.930Z,66.09
2022-12-15T04:22:21.929Z,65.97
2022-12-15T04:24:12.292Z,66.09
2022-12-15T04:26:02.425Z,65.92
2022-12-15T04:27:57.079Z,66.02
2022-12-15T04:29:49.831Z,66.14
2022-12-15T04:31:46.764Z,66.56
2022-12-15T04:33:37.457Z,66.03
2022-12-15T04:35:28.047Z,66.36
2022-12-15T04:37:18.523Z,66.45
2022-12-15T04:39:08.879Z,66.22
2022-12-15T04:40:59.171Z,66.35
2022-12-15T04:42:49.409Z,65.97
2022-12-15T04:44:39.950Z,66.44
2022-12-15T04:46:30.109Z,66.42
2022-12-15T04:48:20.229Z,66.19
2022-12-15T04:50:10.175Z,65.98
2022-12-15T04:52:03.384Z,65.76
2022-12-15T04:53:53.691Z,66.05
2022-12-15T04:55:43.767Z,65.77
2022-12-15T04:57:33.746Z,65.81
2022-12-15T04:59:23.850Z,65.95
2022-12-15T05:01:15.340Z,65.99
2022-12-15T05:03:05.560Z,65.95
2022-12-15T05:04:55.726Z,66.27
2022-12-15T05:06:48.308Z,65.92
2022-12-15T05:08:39.738Z,65.88
2022-12-15T05:10:29.946Z,66.32
2022-12-15T05:12:20.267Z,65.99
2022-12-15T05:14:10.506Z,65.89
2022-12-15T05:16:00.937Z,66.09
2022-12-15T05:17:51.006Z,65.99
2022-12-15T05:19:41.303Z,65.80
2022-12-15T05:21:31.461Z,65.85
2022-12-15T05:23:21.352Z,65.97
2022-12-15T05:25:11.216Z,66.11
2022-12-15T05:27:01.253Z,66.19
2022-12-15T05:28:51.675Z,66.56
2022-12-15T05:30:41.528Z,66.70
2022-12-15T05:32:13.418Z,66.65
2022-12-15T05:33:45.016Z,66.89
2022-12-15T05:35:16.555Z,67.23
2022-12-15T05:36:48.176Z,67.49
2022-12-15T05:38:19.661Z,67.15
2022-12-15T05:39:51.239Z,67.39
2022-12-15T05:41:23.472Z,67.13
2022-12-15T05:42:57.729Z,67.19
2022-12-15T05:44:29.484Z,67.41
2022-12-15T05:46:07.114Z,67.87
2022-12-15T05:47:38.801Z,67.33
2022-12-15T05:49:11.603Z,67.63
2022-12-15T05:50:43.115Z,67.54
2022-12-15T05:52:14.965Z,67.63
2022-12-15T05:53:46.536Z,67.28
2022-12-15T05:55:18.748Z,67.10
2022-12-15T05:56:50.685Z,67.23
2022-12-15T05:58:22.467Z,67.12
2022-12-15T05:59:54.021Z,67.27
2022-12-15T06:01:26.275Z,67.35
2022-12-15T06:02:58.210Z,67.55
2022-12-15T06:04:29.929Z,67.13
2022-12-15T06:06:01.715Z,66.97
2022-12-15T06:07:34.093Z,67.24
2022-12-15T06:09:05.634Z,66.87
2022-12-15T06:10:37.405Z,66.91
2022-12-15T06:12:08.964Z,67.01
2022-12-15T06:13:40.682Z,67.18
2022-12-15T06:15:12.343Z,67.16
2022-12-15T06:16:50.829Z,67.30
2022-12-15T06:18:22.914Z,67.31
2022-12-15T06:19:54.617Z,67.48
2022-12-15T06:21:27.417Z,67.42
2022-12-15T06:22:59.130Z,67.33
2022-12-15T06:24:30.654Z,67.06
2022-12-15T06:26:15.714Z,67.41
2022-12-15T06:27:47.315Z,67.10
2022-12-15T06:29:19.090Z,67.03
2022-12-15T06:30:52.433Z,66.98
2022-12-15T06:32:24.059Z,67.14
2022-12-15T06:34:01.403Z,67.25
2022-12-15T06:35:39.918Z,67.12
2022-12-15T06:37:11.579Z,67.54
2022-12-15T06:38:43.845Z,67.13
2022-12-15T06:40:15.405Z,67.31
2022-12-15T06:41:46.971Z,67.48
2022-12-15T06:43:18.596Z,67.58
2022-12-15T06:44:50.470Z,67.38
2022-12-15T06:46:22.195Z,67.42
2022-12-15T06:47:59.522Z,67.78
2022-12-15T06:49:32.849Z,67.45
2022-12-15T06:51:05.147Z,67.29
2022-12-15T06:52:36.754Z,67.16
2022-12-15T06:54:09.163Z,66.97
2022-12-15T06:55:41.015Z,67.27
2022-12-15T06:57:12.577Z,67.26
2022-12-15T06:58:44.175Z,67.12
2022-12-15T07:00:16.055Z,67.04
2022-12-15T07:01:47.805Z,67.03
2022-12-15T07:03:19.706Z,67.03
2022-12-15T07:04:51.612Z,67.13
2022-12-15T07:06:23.284Z,67.47
2022-12-15T07:07:54.781Z,67.01
2022-12-15T07:09:26.526Z,66.81
2022-12-15T07:10:58.166Z,67.25
2022-12-15T07:12:29.716Z,67.12
2022-12-15T07:14:01.221Z,67.39
2022-12-15T07:15:32.766Z,67.61
2022-12-15T07:17:04.264Z,67.45
2022-12-15T07:18:35.898Z,66.92
2022-12-15T07:20:07.776Z,67.23
2022-12-15T07:21:39.398Z,66.89
2022-12-15T07:23:10.947Z,66.65
2022-12-15T07:24:42.542Z,66.65
2022-12-15T07:26:14.104Z,66.74
2022-12-15T07:27:45.919Z,67.06
2022-12-15T07:29:23.016Z,66.69
2022-12-15T07:30:55.111Z,66.76
2022-12-15T07:32:26.679Z,66.89
2022-12-15T07:33:58.708Z,67.17
2022-12-15T07:35:30.563Z,66.85
2022-12-15T07:37:02.088Z,67.38
2022-12-15T07:38:33.686Z,66.94
2022-12-15T07:40:05.493Z,66.90
2022-12-15T07:41:37.924Z,66.66
2022-12-15T07:43:09.475Z,67.24
2022-12-15T07:44:41.163Z,66.73
2022-12-15T07:46:12.764Z,66.79
2022-12-15T07:47:44.338Z,66.91
2022-12-15T07:49:17.074Z,66.76
2022-12-15T07:50:48.742Z,66.77
2022-12-15T07:52:22.052Z,66.77
2022-12-15T07:53:53.555Z,67.18
2022-12-15T07:55:43.629Z,66.70
2022-12-15T07:57:17.289Z,67.37
2022-12-15T07:58:48.970Z,67.08
2022-12-15T08:00:20.859Z,67.20
2022-12-15T08:01:53.898Z,67.42
2022-12-15T08:03:26.039Z,67.75
2022-12-15T08:04:57.682Z,67.90
2022-12-15T08:06:29.269Z,67.83
2022-12-15T08:08:00.845Z,67.70
2022-12-15T08:09:32.504Z,67.94
2022-12-15T08:11:07.300Z,67.66
2022-12-15T08:12:39.072Z,67.72
2022-12-15T08:14:17.018Z,68.02
2022-12-15T08:15:52.884Z,68.09
2022-12-15T08:17:24.392Z,67.90
2022-12-15T08:18:57.343Z,68.05
2022-12-15T08:20:30.603Z,67.26
2022-12-15T08:22:02.264Z,67.41
2022-12-15T08:23:34.406Z,67.49
2022-12-15T08:25:06.242Z,67.51
2022-12-15T08:26:40.636Z,67.63
2022-12-15T08:28:12.267Z,67.54
2022-12-15T08:29:52.098Z,67.60
2022-12-15T08:31:24.101Z,67.64
2022-12-15T08:32:55.703Z,67.37
2022-12-15T08:34:27.284Z,67.05
2022-12-15T08:36:03.311Z,67.27
2022-12-15T08:37:35.100Z,67.28
2022-12-15T08:39:06.664Z,67.99
2022-12-15T08:40:38.231Z,67.35
2022-12-15T08:42:09.834Z,67.37
2022-12-15T08:43:48.258Z,67.60
2022-12-15T08:45:20.690Z,67.97
2022-12-15T08:46:52.190Z,67.42
2022-12-15T08:48:23.781Z,67.71
2022-12-15T08:49:55.852Z,67.39
2022-12-15T08:51:28.388Z,67.80
2022-12-15T08:53:28.879Z,67.30
2022-12-15T08:54:51.502Z,67.69
2022-12-15T08:56:23.367Z,67.44
2022-12-15T08:57:54.922Z,67.71
2022-12-15T08:59:26.625Z,67.77
2022-12-15T09:01:01.848Z,67.69
2022-12-15T09:02:33.575Z,67.69
2022-12-15T09:04:05.266Z,67.16
2022-12-15T09:05:37.297Z,67.87
2022-12-15T09:07:09.040Z,66.44
2022-12-15T09:08:40.559Z,67.36
2022-12-15T09:10:12.126Z,67.42
2022-12-15T09:11:46.753Z,67.09
2022-12-15T09:13:18.322Z,68.17
2022-12-15T09:14:49.922Z,67.75
2022-12-15T09:16:21.601Z,67.42
2022-12-15T09:17:53.219Z,66.77
2022-12-15T09:19:25.400Z,66.41
2022-12-15T09:21:00.596Z,66.18
2022-12-15T09:22:32.339Z,66.13
2022-12-15T09:24:04.118Z,66.19
2022-12-15T09:25:35.669Z,66.12
2022-12-15T09:27:07.805Z,66.29
2022-12-15T09:28:39.401Z,66.00
2022-12-15T09:30:11.151Z,66.49
2022-12-15T09:31:44.841Z,65.82
2022-12-15T09:33:16.330Z,65.76
2022-12-15T09:34:47.861Z,66.03
2022-12-15T09:36:22.433Z,66.65
2022-12-15T09:37:54.414Z,66.25
2022-12-15T09:39:26.045Z,66.73
2022-12-15T09:40:57.648Z,66.53
2022-12-15T09:42:29.593Z,66.80
2022-12-15T09:44:01.296Z,66.49
2022-12-15T09:45:34.736Z,66.57
2022-12-15T09:47:16.028Z,66.73
2022-12-15T09:48:47.925Z,67.63
2022-12-15T09:50:19.913Z,67.56
2022-12-15T09:51:57.808Z,67.16
2022-12-15T09:53:54.069Z,66.92
2022-12-15T09:55:24.824Z,67.01
2022-12-15T09:56:57.035Z,66.55
2022-12-15T09:58:33.614Z,67.00
2022-12-15T10:00:07.589Z,67.56
2022-12-15T10:01:43.751Z,67.25
2022-12-15T10:03:24.195Z,67.33
2022-12-15T10:04:58.011Z,67.43
2022-12-15T10:06:33.054Z,67.62
2022-12-15T10:08:05.066Z,67.13
2022-12-15T10:12:26.806Z,67.87
2022-12-15T10:16:52.953Z,67.20
2022-12-15T10:18:30.940Z,67.97
2022-12-15T10:20:22.321Z,67.97
2022-12-15T10:21:53.946Z,67.31
2022-12-15T10:23:25.585Z,67.43
2022-12-15T10:25:09.808Z,67.90
2022-12-15T10:26:42.307Z,67.60
2022-12-15T10:28:17.065Z,67.67
2022-12-15T10:30:01.136Z,68.25
2022-12-15T10:31:35.587Z,67.98
2022-12-15T10:33:25.582Z,68.41
2022-12-15T10:34:57.348Z,68.24
2022-12-15T10:36:29.776Z,68.29
2022-12-15T10:38:02.710Z,68.11
2022-12-15T10:39:40.995Z,67.94
2022-12-15T10:41:16.368Z,68.40
2022-12-15T10:42:51.018Z,67.63
2022-12-15T10:44:30.284Z,68.08
2022-12-15T10:46:09.556Z,68.27
2022-12-15T10:47:41.194Z,68.30
2022-12-15T10:49:12.948Z,68.32
2022-12-15T10:50:44.873Z,68.00
2022-12-15T10:52:20.291Z,67.75
2022-12-15T10:53:52.817Z,67.69
2022-12-15T10:55:37.235Z,67.70
2022-12-15T10:57:29.285Z,67.76
2022-12-15T10:59:03.778Z,67.99
2022-12-15T11:00:35.529Z,67.96
2022-12-15T11:02:25.785Z,67.97
2022-12-15T11:03:58.106Z,68.00
2022-12-15T11:05:29.989Z,68.06
2022-12-15T11:07:02.263Z,67.69
2022-12-15T11:08:33.957Z,67.80
2022-12-15T11:10:13.387Z,67.99
2022-12-15T11:12:11.854Z,68.10
2022-12-15T11:14:03.581Z,67.86
2022-12-15T11:15:37.743Z,67.66
2022-12-15T11:17:36.947Z,67.85
2022-12-15T11:19:11.800Z,67.86
2022-12-15T11:20:48.642Z,67.98
2022-12-15T11:22:23.165Z,67.86
2022-12-15T11:24:04.224Z,68.11
2022-12-15T11:25:39.128Z,68.00
2022-12-15T11:27:10.847Z,67.94
2022-12-15T11:28:51.538Z,67.92
2022-12-15T11:30:43.437Z,67.90
2022-12-15T11:32:15.644Z,67.65
2022-12-15T11:33:47.184Z,67.77
2022-12-15T11:35:22.768Z,67.92
2022-12-15T11:37:04.232Z,67.85
2022-12-15T11:38:35.890Z,67.60
2022-12-15T11:40:16.825Z,67.58
2022-12-15T11:41:58.042Z,67.55
2022-12-15T11:43:39.808Z,67.49
2022-12-15T11:45:14.538Z,67.29
2022-12-15T11:46:55.472Z,67.27
2022-12-15T11:48:28.250Z,67.33
2022-12-15T11:50:03.589Z,67.19
2022-12-15T11:51:36.375Z,67.46
2022-12-15T11:53:14.040Z,67.52
2022-12-15T11:54:53.702Z,67.14
2022-12-15T11:56:34.154Z,67.14
2022-12-15T11:58:14.719Z,66.92
2022-12-15T11:59:46.526Z,66.90
2022-12-15T12:01:38.199Z,66.83
2022-12-15T12:03:10.100Z,66.49
2022-12-15T12:05:02.039Z,66.17
2022-12-15T12:06:35.370Z,66.46
2022-12-15T12:08:16.401Z,66.49
2022-12-15T12:10:06.548Z,66.69
2022-12-15T12:11:43.036Z,66.34
2022-12-15T12:13:20.955Z,66.26
2022-12-15T12:15:11.273Z,66.03
2022-12-15T12:17:08.505Z,65.98
2022-12-15T12:18:41.188Z,65.40
2022-12-15T12:20:18.600Z,65.52
2022-12-15T12:21:51.379Z,65.40
2022-12-15T12:23:24.940Z,65.20
2022-12-15T12:24:56.814Z,65.24
2022-12-15T12:26:40.877Z,65.13
2022-12-15T12:28:20.918Z,64.97
2022-12-15T12:30:06.640Z,64.91
2022-12-15T12:31:38.511Z,64.86
2022-12-15T12:33:19.165Z,64.75
2022-12-15T12:34:51.176Z,64.77
2022-12-15T12:36:23.050Z,64.63
2022-12-15T12:38:01.386Z,65.13
2022-12-15T12:39:35.247Z,65.18
2022-12-15T12:41:08.089Z,64.85
2022-12-15T12:42:58.291Z,64.91
2022-12-15T12:44:35.263Z,64.78
2022-12-15T12:46:13.254Z,64.71
2022-12-15T12:47:47.089Z,64.77
2022-12-15T12:49:30.529Z,64.91
2022-12-15T12:51:13.007Z,64.81
2022-12-15T12:52:51.405Z,65.06
2022-12-15T12:54:38.807Z,65.17
2022-12-15T12:56:28.799Z,64.92
2022-12-15T12:58:00.319Z,64.63
2022-12-15T12:59:36.714Z,64.34
2022-12-15T13:01:11.480Z,64.19
2022-12-15T13:02:46.454Z,63.99
2022-12-15T13:04:30.254Z,64.05
2022-12-15T13:06:01.805Z,64.14
2022-12-15T13:07:38.029Z,64.20
2022-12-15T13:09:18.258Z,64.02
2022-12-15T13:10:50.765Z,64.04
2022-12-15T13:12:56.846Z,63.87
2022-12-15T13:14:40.726Z,63.64
2022-12-15T13:16:12.374Z,63.58
2022-12-15T13:17:44.431Z,63.51
2022-12-15T13:19:17.073Z,63.40
2022-12-15T13:20:50.755Z,63.29
2022-12-15T13:22:42.792Z,63.59
2022-12-15T13:24:26.706Z,63.01
2022-12-15T13:27:53.267Z,62.62
2022-12-15T13:29:24.869Z,62.64
2022-12-15T13:31:15.052Z,62.73
2022-12-15T13:32:47.188Z,62.69
2022-12-15T13:34:20.446Z,62.74
2022-12-15T13:35:52.373Z,62.80
2022-12-15T13:37:43.175Z,62.54
2022-12-15T13:39:17.327Z,62.63
2022-12-15T13:40:52.059Z,62.78
2022-12-15T13:44:20.900Z,62.74
2022-12-15T13:45:54.187Z,62.37
2022-12-15T13:47:26.704Z,62.12
2022-12-15T13:49:27.644Z,62.04
2022-12-15T13:51:03.742Z,62.00
2022-12-15T13:53:17.434Z,62.04
2022-12-15T13:54:36.155Z,61.79
2022-12-15T13:56:11.489Z,61.79
2022-12-15T13:57:50.181Z,61.59
2022-12-15T13:59:34.619Z,61.43
2022-12-15T14:01:16.391Z,61.31
2022-12-15T14:02:48.013Z,61.01
2022-12-15T14:04:19.943Z,60.98
2022-12-15T14:05:58.884Z,60.99
2022-12-15T14:07:30.744Z,60.97
2022-12-15T14:09:02.499Z,61.33
2022-12-15T14:10:36.830Z,61.17
2022-12-15T14:12:08.808Z,61.40
2022-12-15T14:13:41.031Z,61.04
2022-12-15T14:15:13.950Z,61.19
2022-12-15T14:16:45.650Z,61.27
2022-12-15T14:18:23.334Z,61.09
2022-12-15T14:19:55.043Z,60.95
2022-12-15T14:21:27.132Z,60.84
2022-12-15T14:22:59.036Z,60.99
2022-12-15T14:24:40.510Z,61.37
2022-12-15T14:26:13.429Z,60.88
2022-12-15T14:27:45.089Z,60.95
2022-12-15T14:29:22.404Z,61.56
2022-12-15T14:30:55.874Z,60.97
2022-12-15T14:32:27.611Z,61.58
2022-12-15T14:34:23.083Z,61.51
2022-12-15T14:35:55.613Z,61.14
2022-12-15T14:37:27.433Z,61.31
2022-12-15T14:39:05.988Z,61.20
2022-12-15T14:40:38.032Z,61.34
2022-12-15T14:42:16.646Z,61.62
2022-12-15T14:44:31.536Z,61.23
2022-12-15T14:45:41.811Z,61.12
2022-12-15T14:47:17.319Z,61.03
2022-12-15T14:48:57.318Z,61.04
2022-12-15T14:50:29.402Z,61.30
2022-12-15T14:52:01.767Z,61.28
2022-12-15T14:53:36.600Z,61.18
2022-12-15T14:55:26.359Z,61.40
2022-12-15T14:57:01.197Z,60.88
2022-12-15T14:58:35.695Z,61.28
2022-12-15T15:00:26.343Z,61.20
2022-12-15T15:02:30.681Z,61.13
2022-12-15T15:03:11.248Z,63.02
2022-12-15T15:03:13.202Z,62.50
2022-12-15T15:04:06.157Z,61.31
2022-12-15T15:05:37.837Z,61.49
2022-12-15T15:07:16.742Z,61.44
2022-12-15T15:08:49.435Z,61.51
2022-12-15T15:10:24.741Z,61.30
2022-12-15T15:12:02.083Z,61.17
2022-12-15T15:13:39.976Z,61.15
2022-12-15T15:15:14.945Z,61.19
2022-12-15T15:16:47.154Z,61.26
2022-12-15T15:18:18.850Z,61.43
2022-12-15T15:19:50.509Z,61.60
2022-12-15T15:21:23.205Z,61.74
2022-12-15T15:23:02.724Z,61.69
2022-12-15T15:24:35.638Z,61.41
2022-12-15T15:26:07.933Z,61.41
2022-12-15T15:27:40.070Z,61.10
2022-12-15T15:29:49.953Z,61.18
2022-12-15T15:31:28.645Z,61.33
2022-12-15T15:33:02.231Z,61.59
2022-12-15T15:34:34.947Z,61.66
2022-12-15T15:36:06.924Z,61.77
2022-12-15T15:37:38.523Z,61.89
2022-12-15T15:39:11.018Z,62.24
2022-12-15T15:40:42.603Z,62.15
2022-12-15T15:42:15.070Z,62.18
2022-12-15T15:43:46.893Z,62.16
2022-12-15T15:45:18.670Z,62.28
2022-12-15T15:46:51.057Z,62.44
2022-12-15T15:48:25.810Z,62.25
2022-12-15T15:49:58.478Z,62.25
2022-12-15T15:51:30.517Z,62.43
2022-12-15T15:53:02.701Z,62.55
2022-12-15T15:54:36.442Z,62.71
2022-12-15T15:56:10.743Z,62.74
2022-12-15T15:57:42.357Z,62.73
2022-12-15T15:59:15.146Z,62.75
2022-12-15T16:00:46.976Z,62.83
2022-12-15T16:02:18.805Z,62.75
2022-12-15T16:03:50.750Z,62.81
2022-12-15T16:05:22.481Z,62.84
2022-12-15T16:06:54.144Z,62.66
2022-12-15T16:08:27.830Z,62.81
2022-12-15T16:09:59.509Z,62.63
2022-12-15T16:11:32.083Z,62.54
2022-12-15T16:13:04.183Z,62.20
2022-12-15T16:14:35.890Z,62.34
2022-12-15T16:16:09.987Z,62.29
2022-12-15T16:17:42.279Z,61.95
2022-12-15T16:19:14.154Z,62.26
2022-12-15T16:20:46.791Z,62.71
2022-12-15T16:22:19.690Z,62.91
2022-12-15T16:23:51.425Z,62.57
2022-12-15T16:25:50.356Z,63.27
2022-12-15T16:27:23.148Z,63.20
2022-12-15T16:28:54.845Z,62.55
2022-12-15T16:30:28.023Z,62.98
2022-12-15T16:32:01.675Z,62.97
2022-12-15T16:33:33.244Z,62.83
2022-12-15T16:35:05.485Z,63.00
2022-12-15T16:36:41.217Z,63.19
2022-12-15T16:38:14.875Z,63.65
2022-12-15T16:39:46.652Z,63.14
2022-12-15T16:41:18.722Z,63.00
2022-12-15T16:42:59.919Z,63.36
2022-12-15T16:44:32.103Z,63.90
2022-12-15T16:46:03.979Z,64.05
2022-12-15T16:47:35.809Z,63.99
2022-12-15T16:49:07.533Z,64.20
2022-12-15T16:50:40.156Z,64.13
2022-12-15T16:52:17.849Z,63.65
2022-12-15T16:53:49.507Z,63.63
2022-12-15T16:55:25.355Z,64.23
2022-12-15T16:56:57.543Z,64.11
2022-12-15T16:58:32.353Z,64.03
2022-12-15T17:00:10.599Z,64.57
2022-12-15T17:01:42.433Z,64.56
2022-12-15T17:03:18.360Z,63.86
2022-12-15T17:04:50.656Z,63.81
2022-12-15T17:06:22.218Z,64.52
2022-12-15T17:07:55.695Z,64.63
2022-12-15T17:09:27.768Z,64.16
2022-12-15T17:10:59.694Z,64.39
2022-12-15T17:12:33.191Z,64.42
2022-12-15T17:14:06.737Z,63.93
2022-12-15T17:15:40.371Z,64.17
2022-12-15T17:17:15.469Z,64.33
2022-12-15T17:18:47.562Z,64.32
2022-12-15T17:20:28.942Z,64.45
2022-12-15T17:22:01.350Z,64.12
2022-12-15T17:23:33.380Z,64.33
2022-12-15T17:25:05.963Z,63.98
2022-12-15T17:26:37.746Z,64.42
2022-12-15T17:28:14.318Z,64.78
2022-12-15T17:29:45.870Z,64.57
2022-12-15T17:31:18.965Z,64.62
2022-12-15T17:32:52.540Z,64.54
2022-12-15T17:34:32.833Z,64.74
2022-12-15T17:36:06.372Z,64.65
2022-12-15T17:37:39.810Z,64.67
2022-12-15T17:39:11.386Z,64.18
2022-12-15T17:40:43.055Z,64.35
2022-12-15T17:42:16.689Z,64.22
2022-12-15T17:44:09.733Z,64.24
2022-12-15T17:45:47.445Z,64.51
2022-12-15T17:47:20.009Z,64.66
2022-12-15T17:48:53.889Z,64.33
2022-12-15T17:50:32.194Z,64.18
2022-12-15T17:52:05.415Z,63.88
2022-12-15T17:53:38.751Z,63.76
2022-12-15T17:55:21.025Z,63.94
2022-12-15T17:56:52.679Z,64.00
2022-12-15T17:58:29.116Z,64.25
2022-12-15T18:00:02.849Z,64.32
2022-12-15T18:01:34.613Z,64.66
2022-12-15T18:03:06.675Z,64.79
2022-12-15T18:04:39.466Z,64.33
2022-12-15T18:06:15.884Z,64.78
2022-12-15T18:07:48.567Z,64.47
2022-12-15T18:09:22.503Z,65.10
2022-12-15T18:10:58.709Z,65.25
2022-12-15T18:12:30.599Z,65.22
2022-12-15T18:14:02.439Z,64.98
2022-12-15T18:15:34.425Z,65.32
2022-12-15T18:17:12.124Z,65.23
2022-12-15T18:18:44.364Z,65.04
2022-12-15T18:20:19.282Z,64.92
2022-12-15T18:21:51.836Z,64.78
2022-12-15T18:23:32.668Z,65.23
2022-12-15T18:25:07.198Z,65.03
2022-12-15T18:26:44.812Z,65.13
2022-12-15T18:28:22.653Z,65.38
2022-12-15T18:29:55.237Z,65.66
2022-12-15T18:31:27.241Z,65.43
2022-12-15T18:33:00.140Z,65.37
2022-12-15T18:34:32.784Z,65.49
2022-12-15T18:36:04.707Z,65.01
2022-12-15T18:37:37.858Z,65.50
2022-12-15T18:39:27.517Z,65.67
2022-12-15T18:41:00.037Z,64.92
2022-12-15T18:42:32.193Z,65.32
2022-12-15T18:44:04.227Z,65.20
2022-12-15T18:45:36.040Z,65.17
2022-12-15T18:47:15.751Z,64.53
2022-12-15T18:48:47.502Z,65.15
2022-12-15T18:50:27.845Z,64.80
2022-12-15T18:51:59.614Z,65.00
2022-12-15T18:53:35.836Z,65.24
2022-12-15T18:55:19.424Z,65.04
2022-12-15T18:56:57.472Z,65.36
2022-12-15T18:58:30.518Z,65.04
2022-12-15T19:00:11.578Z,65.11
2022-12-15T19:01:44.439Z,64.88
2022-12-15T19:03:19.162Z,65.36
2022-12-15T19:04:55.757Z,64.62
2022-12-15T19:06:35.064Z,64.65
2022-12-15T19:08:16.148Z,64.38
2022-12-15T19:09:49.121Z,64.41
2022-12-15T19:11:32.676Z,64.79
2022-12-15T19:13:07.108Z,64.87
2022-12-15T19:14:42.494Z,64.44
2022-12-15T19:16:17.154Z,64.31
2022-12-15T19:18:08.333Z,64.83
2022-12-15T19:19:59.255Z,64.25
2022-12-15T19:21:52.348Z,63.89
2022-12-15T19:23:24.647Z,64.26
2022-12-15T19:24:59.249Z,64.14
2022-12-15T19:26:32.445Z,64.66
2022-12-15T19:28:08.961Z,64.36
2022-12-15T19:29:41.006Z,64.57
2022-12-15T19:31:13.458Z,64.56
2022-12-15T19:32:45.761Z,64.54
2022-12-15T19:34:17.379Z,64.87
2022-12-15T19:35:51.170Z,65.23
2022-12-15T19:37:24.534Z,65.31
2022-12-15T19:38:56.328Z,65.05
2022-12-15T19:40:30.614Z,64.95
2022-12-15T19:42:03.118Z,65.22
2022-12-15T19:43:35.362Z,64.51
2022-12-15T19:45:14.846Z,64.86
2022-12-15T19:46:46.572Z,64.64
2022-12-15T19:48:23.093Z,65.49
2022-12-15T19:49:55.793Z,64.68
2022-12-15T19:51:29.304Z,65.04
2022-12-15T19:53:01.878Z,64.56
2022-12-15T19:54:33.550Z,64.90
2022-12-15T19:56:05.487Z,64.50
2022-12-15T19:57:37.208Z,64.98
2022-12-15T19:59:15.944Z,64.71
2022-12-15T20:00:47.733Z,65.47
2022-12-15T20:02:20.393Z,64.41
2022-12-15T20:03:53.271Z,64.72
2022-12-15T20:05:24.975Z,64.28
2022-12-15T20:06:56.703Z,64.52
2022-12-15T20:08:31.556Z,65.17
2022-12-15T20:10:05.435Z,64.00
2022-12-15T20:11:37.157Z,64.68
2022-12-15T20:13:11.203Z,64.39
2022-12-15T20:14:44.165Z,64.31
2022-12-15T20:16:19.266Z,63.94
2022-12-15T20:17:56.347Z,64.68
2022-12-15T20:19:28.505Z,64.37
2022-12-15T20:21:00.356Z,64.83
2022-12-15T20:22:32.440Z,64.65
2022-12-15T20:24:07.875Z,64.91
2022-12-15T20:25:40.490Z,65.27
2022-12-15T20:27:13.176Z,64.61
2022-12-15T20:28:44.831Z,64.57
2022-12-15T20:30:20.337Z,65.07
2022-12-15T20:31:55.308Z,65.21
2022-12-15T20:33:27.184Z,65.62
2022-12-15T20:34:59.189Z,65.44
2022-12-15T20:36:30.767Z,65.54
2022-12-15T20:38:34.409Z,65.44
2022-12-15T20:40:10.316Z,65.51
2022-12-15T20:41:42.059Z,65.63
2022-12-15T20:43:14.573Z,65.91
2022-12-15T20:44:46.425Z,66.19
2022-12-15T20:46:26.339Z,66.30
2022-12-15T20:47:58.242Z,65.36
2022-12-15T20:49:31.981Z,65.92
2022-12-15T20:51:08.841Z,65.70